Time;durP1;ratioP1;P1;durP2;ratioP2;P2;SDS_P1;SDS_P2;PMS_P1;PMS_P2;Temp;Humidity;BMP_temperature;BMP_pressure;BME280_temperature;BME280_humidity;BME280_pressure;Samples;Min_cycle;Max_cycle;Signal;HPM_P1;HPM_P2
2023/11/28 00:02:14;;;;;;;0.73;0.73;;;;;;;1.90;100.00;99917.19;5031353;28;20582;-74
2023/11/28 00:04:40;;;;;;;0.35;0.35;;;;;;;2.46;100.00;100046.34;5058120;28;20512;-72
2023/11/28 00:07:05;;;;;;;0.50;0.50;;;;;;;2.45;100.00;100054.94;5036025;28;20592;-73
2023/11/28 00:09:31;;;;;;;0.30;0.30;;;;;;;2.47;100.00;100042.03;5046742;28;20060;-72
2023/11/28 00:11:57;;;;;;;0.40;0.40;;;;;;;2.32;100.00;100014.06;5039916;28;20096;-75
2023/11/28 00:14:22;;;;;;;0.30;0.30;;;;;;;1.83;100.00;99948.03;5040467;28;20037;-73
2023/11/28 00:16:48;;;;;;;0.30;0.30;;;;;;;2.44;100.00;100048.03;5044396;28;20726;-73
2023/11/28 00:19:13;;;;;;;0.50;0.50;;;;;;;2.06;100.00;100002.97;5035529;28;20508;-74
2023/11/28 00:21:39;;;;;;;0.40;0.40;;;;;;;1.91;100.00;99985.31;5032708;28;20087;-74
2023/11/28 00:24:06;;;;;;;3.17;2.97;;;;;;;2.16;100.00;99986.00;5041157;28;20072;-72
2023/11/28 00:26:32;;;;;;;0.40;0.40;;;;;;;2.32;100.00;100014.91;5048639;28;20084;-73
2023/11/28 00:28:57;;;;;;;0.77;0.77;;;;;;;2.05;100.00;99940.00;5019268;28;20045;-73
2023/11/28 00:31:23;;;;;;;1.40;1.35;;;;;;;1.97;100.00;99987.22;5023075;28;20042;-74
2023/11/28 00:33:48;;;;;;;0.38;0.38;;;;;;;2.40;100.00;100030.66;5015745;28;20096;-73
2023/11/28 00:36:17;;;;;;;0.30;0.30;;;;;;;2.16;100.00;100030.00;5016036;28;20142;-74
2023/11/28 00:38:43;;;;;;;0.40;0.40;;;;;;;1.94;100.00;99993.16;5020220;28;20050;-73
2023/11/28 00:41:09;;;;;;;0.80;0.80;;;;;;;1.63;100.00;99937.13;5021067;28;20040;-73
2023/11/28 00:43:35;;;;;;;0.30;0.30;;;;;;;1.49;100.00;99897.94;5018684;28;20037;-73
2023/11/28 00:46:01;;;;;;;0.35;0.35;;;;;;;2.19;100.00;100025.75;5018418;28;20438;-74
2023/11/28 00:48:27;;;;;;;0.30;0.30;;;;;;;1.85;100.00;99948.91;5021237;28;20157;-73
2023/11/28 00:50:53;;;;;;;0.40;0.40;;;;;;;1.89;100.00;99972.31;5021921;28;20050;-73
2023/11/28 00:53:18;;;;;;;0.30;0.30;;;;;;;2.03;100.00;100000.31;5023046;28;20029;-74
2023/11/28 00:55:44;;;;;;;0.30;0.30;;;;;;;1.89;100.00;99989.56;5018518;28;20059;-74
2023/11/28 00:58:10;;;;;;;0.40;0.40;;;;;;;2.26;100.00;100029.41;5021134;28;20464;-71
2023/11/28 01:00:35;;;;;;;0.40;0.40;;;;;;;2.08;100.00;100030.66;5023694;28;20041;-72
2023/11/28 01:03:02;;;;;;;0.47;0.47;;;;;;;2.20;100.00;100019.78;5021956;28;20070;-73
2023/11/28 01:05:28;;;;;;;0.38;0.38;;;;;;;1.66;100.00;99934.59;5024932;28;20158;-71
2023/11/28 01:07:53;;;;;;;0.75;0.75;;;;;;;1.53;100.00;99906.66;5017959;28;20472;-73
2023/11/28 01:10:19;;;;;;;0.40;0.40;;;;;;;1.66;100.00;99913.91;5018310;28;20034;-73
2023/11/28 01:12:44;;;;;;;0.30;0.30;;;;;;;2.05;100.00;99978.81;5018298;28;20041;-74
2023/11/28 01:15:12;;;;;;;0.40;0.40;;;;;;;2.06;100.00;99997.78;5018676;28;20053;-71
2023/11/28 01:17:37;;;;;;;0.40;0.40;;;;;;;2.07;100.00;99976.28;5015430;28;20041;-73
2023/11/28 01:20:04;;;;;;;0.30;0.30;;;;;;;1.56;100.00;99886.06;5020368;28;20609;-73
2023/11/28 01:22:29;;;;;;;0.40;0.40;;;;;;;1.61;100.00;99895.69;5024734;28;20026;-73
2023/11/28 01:24:55;;;;;;;0.40;0.40;;;;;;;1.74;100.00;99934.84;5021086;28;20054;-73
2023/11/28 01:27:20;;;;;;;0.43;0.43;;;;;;;2.23;100.00;99993.09;5019333;28;20038;-73
2023/11/28 01:29:46;;;;;;;0.50;0.50;;;;;;;1.89;100.00;99974.03;5024331;28;20404;-72
2023/11/28 01:32:11;;;;;;;0.30;0.30;;;;;;;2.13;100.00;99983.31;5020648;28;20026;-73
2023/11/28 01:34:37;;;;;;;0.30;0.30;;;;;;;1.49;100.00;99885.00;5023442;28;20503;-73
2023/11/28 01:37:02;;;;;;;0.30;0.30;;;;;;;2.23;100.00;99993.09;5024916;28;20059;-72
2023/11/28 01:39:28;;;;;;;0.60;0.60;;;;;;;1.81;100.00;99934.16;5022828;28;20117;-73
2023/11/28 01:41:54;;;;;;;0.43;0.43;;;;;;;1.94;100.00;99951.75;5029385;28;20041;-75
2023/11/28 01:44:19;;;;;;;0.30;0.30;;;;;;;2.10;100.00;99977.22;5018858;28;20665;-73
2023/11/28 01:46:45;;;;;;;0.20;0.20;;;;;;;1.77;100.00;99928.03;5021247;28;20057;-75
2023/11/28 01:49:13;;;;;;;0.35;0.35;;;;;;;1.36;100.00;99890.66;5024030;28;20128;-73
2023/11/28 01:51:39;;;;;;;0.40;0.40;;;;;;;1.64;100.00;99913.91;5025126;28;20042;-74
2023/11/28 01:54:06;;;;;;;0.40;0.40;;;;;;;1.42;100.00;99862.41;5021210;28;20046;-73
2023/11/28 01:56:33;;;;;;;0.40;0.40;;;;;;;1.89;100.00;99953.34;5022220;28;20040;-73
2023/11/28 01:59:00;;;;;;;0.50;0.50;;;;;;;1.74;100.00;99873.63;5042677;28;20025;-73
2023/11/28 02:01:27;;;;;;;0.47;0.47;;;;;;;1.51;100.00;99864.38;5023489;28;20084;-73
2023/11/28 02:03:53;;;;;;;0.30;0.30;;;;;;;1.85;100.00;99969.63;5030297;28;20132;-74
2023/11/28 02:06:18;;;;;;;0.40;0.40;;;;;;;1.66;100.00;99914.81;5039127;28;20136;-72
2023/11/28 02:08:44;;;;;;;0.38;0.38;;;;;;;1.62;100.00;99931.06;5047858;28;20122;-73
2023/11/28 02:11:12;;;;;;;0.30;0.30;;;;;;;1.83;100.00;99935.09;5047261;28;20029;-73
2023/11/28 02:13:37;;;;;;;1.35;1.25;;;;;;;1.81;100.00;99937.63;5069855;28;20152;-73
2023/11/28 02:16:11;;;;;;;0.30;0.30;;;;;;;1.48;100.00;99863.47;5056478;28;20501;-74
2023/11/28 02:18:36;;;;;;;;;;;;;;;1.58;100.00;99949.03;5042468;28;20045;-74
2023/11/28 02:21:02;;;;;;;3.25;0.80;;;;;;;1.25;100.00;99923.97;5040421;28;19970;-73
2023/11/28 02:23:28;;;;;;;0.35;0.35;;;;;;;1.76;100.00;99946.09;5042640;28;20052;-72
2023/11/28 02:25:56;;;;;;;0.40;0.40;;;;;;;1.38;100.00;99850.22;5048213;28;20383;-73
2023/11/28 02:28:24;;;;;;;0.30;0.30;;;;;;;1.78;100.00;99928.91;5043643;28;20041;-73
2023/11/28 02:30:56;;;;;;;0.45;0.45;;;;;;;1.57;100.00;99935.25;5062115;28;20063;-74
2023/11/28 02:33:21;;;;;;;0.43;0.43;;;;;;;1.19;100.00;99856.59;5044571;28;20037;-75
2023/11/28 02:35:47;;;;;;;0.30;0.30;;;;;;;1.05;100.00;99826.09;5042713;28;20062;-72
2023/11/28 02:38:13;;;;;;;0.30;0.30;;;;;;;0.76;100.00;99838.13;5046243;28;20108;-74
2023/11/28 02:40:39;;;;;;;0.30;0.30;;;;;;;1.61;100.00;99926.72;5044114;28;20029;-74
2023/11/28 02:43:04;;;;;;;0.40;0.40;;;;;;;1.18;100.00;99847.97;5040972;28;20045;-72
2023/11/28 02:45:30;;;;;;;0.50;0.50;;;;;;;1.72;100.00;99913.22;5045085;28;20044;-72
2023/11/28 02:47:57;;;;;;;0.35;0.35;;;;;;;1.43;100.00;99840.91;5040398;28;20036;-72
2023/11/28 02:50:22;;;;;;;0.30;0.30;;;;;;;1.82;100.00;99903.16;5046567;28;20488;-72
2023/11/28 02:52:48;;;;;;;0.43;0.43;;;;;;;1.93;100.00;99907.75;5048661;28;20056;-72
2023/11/28 02:55:14;;;;;;;0.40;0.40;;;;;;;1.34;100.00;99807.94;5040177;28;20582;-74
2023/11/28 02:57:39;;;;;;;0.50;0.40;;;;;;;1.10;100.00;99790.06;5057421;28;20045;-73
2023/11/28 03:00:06;;;;;;;17.17;15.77;;;;;;;1.59;100.00;99896.47;5039006;28;20088;-73
2023/11/28 03:02:34;;;;;;;0.30;0.30;;;;;;;1.19;100.00;99865.22;5046218;28;20053;-73
2023/11/28 03:05:00;;;;;;;0.90;0.90;;;;;;;1.47;100.00;99879.81;5019921;28;20037;-73
2023/11/28 03:07:25;;;;;;;0.50;0.50;;;;;;;1.65;100.00;99863.03;5045755;28;20045;-73
2023/11/28 03:09:51;;;;;;;0.50;0.50;;;;;;;1.15;100.00;99765.22;5043818;28;20120;-73
2023/11/28 03:12:16;;;;;;;0.35;0.35;;;;;;;1.85;100.00;99879.06;5037529;28;20037;-72
2023/11/28 03:14:42;;;;;;;0.80;0.80;;;;;;;1.31;100.00;99784.59;5073375;28;20049;-72
2023/11/28 03:17:07;;;;;;;0.40;0.40;;;;;;;1.74;100.00;99841.75;5042821;28;20029;-73
2023/11/28 03:19:33;;;;;;;0.30;0.30;;;;;;;1.10;100.00;99748.72;5040819;28;20039;-73
2023/11/28 03:21:59;;;;;;;0.32;0.32;;;;;;;1.69;100.00;99850.25;5034946;28;20463;-74
2023/11/28 03:24:25;;;;;;;0.40;0.40;;;;;;;0.99;100.00;99778.53;5038231;28;20487;-73
2023/11/28 03:26:51;;;;;;;0.50;0.50;;;;;;;1.05;100.00;99770.94;5034663;28;20407;-71
2023/11/28 03:29:16;;;;;;;1.58;0.98;;;;;;;0.80;100.00;99722.91;5041457;28;20037;-72
2023/11/28 03:31:43;;;;;;;0.30;0.30;;;;;;;0.59;100.00;99656.94;5046998;28;20025;-72
2023/11/28 03:34:09;;;;;;;1.40;1.30;;;;;;;1.52;100.00;99817.00;5045278;28;20403;-74
2023/11/28 03:36:34;;;;;;;0.63;0.63;;;;;;;1.21;100.00;99795.50;5038003;28;20044;-73
2023/11/28 03:39:00;;;;;;;1.95;1.85;;;;;;;0.94;100.00;99793.03;5039211;28;20049;-74
2023/11/28 03:41:25;;;;;;;0.40;0.40;;;;;;;0.76;100.00;99734.84;5043117;28;20041;-73
2023/11/28 03:43:51;;;;;;;0.35;0.35;;;;;;;1.32;100.00;99826.81;5042765;28;20044;-72
2023/11/28 03:46:16;;;;;;;0.40;0.40;;;;;;;0.66;100.00;99703.59;5072327;28;20053;-74
2023/11/28 03:48:42;;;;;;;0.35;0.35;;;;;;;1.42;100.00;99828.81;5045652;28;20480;-73
2023/11/28 03:51:09;;;;;;;0.63;0.63;;;;;;;0.86;100.00;99732.53;5068946;28;20072;-74
2023/11/28 03:53:38;;;;;;;2.50;2.30;;;;;;;1.07;100.00;99826.13;5037208;28;20045;-73
2023/11/28 03:56:07;;;;;;;2.78;2.65;;;;;;;0.86;100.00;99766.09;5023629;28;20044;-73
2023/11/28 03:58:33;;;;;;;0.55;0.55;;;;;;;0.76;100.00;99772.72;5036669;28;20025;-72
2023/11/28 04:00:58;;;;;;;0.40;0.40;;;;;;;1.19;100.00;99807.50;5042612;28;20048;-75
2023/11/28 04:03:24;;;;;;;1.52;1.50;;;;;;;0.52;100.00;99719.53;5041274;28;20123;-73
2023/11/28 04:05:50;;;;;;;0.40;0.40;;;;;;;1.14;100.00;99802.19;5037755;28;20137;-75
2023/11/28 04:08:15;;;;;;;0.40;0.40;;;;;;;1.14;100.00;99814.25;5041500;28;20075;-72
2023/11/28 04:10:41;;;;;;;0.47;0.47;;;;;;;0.93;100.00;99828.28;5045757;28;20039;-77
2023/11/28 04:13:06;;;;;;;17.98;7.95;;;;;;;0.22;100.00;99685.09;5041464;28;20084;-72
2023/11/28 04:15:33;;;;;;;0.35;0.35;;;;;;;0.58;100.00;99703.34;5031100;28;20385;-72
2023/11/28 04:18:00;;;;;;;0.30;0.30;;;;;;;1.21;100.00;99796.38;5039581;28;20056;-73
2023/11/28 04:20:26;;;;;;;4.65;3.08;;;;;;;0.60;100.00;99691.38;5038978;28;20034;-73
2023/11/28 04:22:52;;;;;;;0.52;0.52;;;;;;;1.18;100.00;99785.09;5044802;28;20419;-72
2023/11/28 04:25:17;;;;;;;1.92;1.88;;;;;;;0.69;100.00;99696.78;5041788;28;20047;-72
2023/11/28 04:27:43;;;;;;;1.00;1.00;;;;;;;1.05;100.00;99764.09;5038370;28;20084;-73
2023/11/28 04:30:10;;;;;;;0.85;0.85;;;;;;;0.50;100.00;99674.75;5035639;28;20400;-73
2023/11/28 04:32:36;;;;;;;1.58;1.55;;;;;;;1.21;100.00;99773.13;5055928;28;20038;-72
2023/11/28 04:35:03;;;;;;;0.57;0.57;;;;;;;1.16;100.00;99771.25;5034435;28;20163;-72
2023/11/28 04:37:29;;;;;;;4.40;4.15;;;;;;;0.39;100.00;99647.75;5040095;28;20032;-75
2023/11/28 04:39:55;;;;;;;1.38;1.27;;;;;;;0.48;100.00;99691.88;5041999;28;20400;-72
2023/11/28 04:42:20;;;;;;;2.25;2.15;;;;;;;0.87;100.00;99776.50;5037806;28;20063;-73
2023/11/28 04:44:46;;;;;;;0.57;0.57;;;;;;;0.66;100.00;99734.56;5038337;28;20037;-72
2023/11/28 04:47:11;;;;;;;0.50;0.50;;;;;;;0.83;100.00;99780.69;5055080;28;20041;-75
2023/11/28 04:49:37;;;;;;;12.75;11.48;;;;;;;0.29;100.00;99723.16;5038723;28;20128;-72
2023/11/28 04:52:04;;;;;;;0.65;0.65;;;;;;;0.34;100.00;99682.88;5039690;28;20042;-73
2023/11/28 04:54:30;;;;;;;0.40;0.40;;;;;;;0.93;100.00;99768.91;5042216;28;20437;-72
2023/11/28 04:56:55;;;;;;;0.47;0.47;;;;;;;0.83;100.00;99762.59;5037431;28;20136;-72
2023/11/28 04:59:22;;;;;;;0.82;0.82;;;;;;;0.56;100.00;99717.91;5041343;28;20049;-72
2023/11/28 05:01:48;;;;;;;13.73;12.60;;;;;;;0.82;100.00;99754.81;5038001;28;20384;-72
2023/11/28 05:04:14;;;;;;;0.60;0.60;;;;;;;1.08;100.00;99801.16;5042214;28;20059;-73
2023/11/28 05:06:39;;;;;;;0.90;0.90;;;;;;;0.07;100.00;99688.09;5041380;28;20049;-72
2023/11/28 05:09:06;;;;;;;0.50;0.50;;;;;;;0.59;100.00;99767.06;5043707;28;20067;-73
2023/11/28 05:11:32;;;;;;;30.50;21.13;;;;;;;0.72;100.00;99757.97;5039653;28;20037;-72
2023/11/28 05:13:58;;;;;;;1.35;0.70;;;;;;;0.89;100.00;99784.25;5045963;28;20037;-73
2023/11/28 05:16:24;;;;;;;0.50;0.50;;;;;;;1.08;100.00;99781.38;5034046;28;20129;-73
2023/11/28 05:18:50;;;;;;;0.35;0.35;;;;;;;0.98;100.00;99779.34;5046070;28;20578;-74
2023/11/28 05:21:17;;;;;;;0.47;0.47;;;;;;;0.47;100.00;99772.75;5046114;28;20044;-73
2023/11/28 05:23:42;;;;;;;0.30;0.30;;;;;;;0.55;100.00;99779.00;5045779;28;20095;-73
2023/11/28 05:26:08;;;;;;;0.45;0.45;;;;;;;0.20;100.00;99711.72;5040575;28;20422;-73
2023/11/28 05:28:33;;;;;;;0.35;0.35;;;;;;;0.57;100.00;99741.19;5037995;28;20044;-73
2023/11/28 05:31:01;;;;;;;1.40;1.40;;;;;;;0.69;100.00;99755.31;5033275;28;20379;-75
2023/11/28 05:33:26;;;;;;;0.30;0.30;;;;;;;0.36;100.00;99682.09;5052660;28;20470;-73
2023/11/28 05:35:53;;;;;;;0.95;0.95;;;;;;;-0.07;100.00;99657.63;5052031;28;20041;-72
2023/11/28 05:38:19;;;;;;;5.35;5.13;;;;;;;0.26;100.00;99739.44;5036809;28;20033;-74
2023/11/28 05:40:44;;;;;;;0.82;0.82;;;;;;;-0.41;100.00;99631.63;5042754;28;20044;-71
2023/11/28 05:43:10;;;;;;;1.00;0.98;;;;;;;-0.27;100.00;99632.94;5036947;28;20056;-72
2023/11/28 05:45:35;;;;;;;0.88;0.82;;;;;;;-0.54;100.00;99635.50;5032906;28;20386;-72
2023/11/28 05:48:02;;;;;;;7.70;7.22;;;;;;;-0.37;100.00;99674.72;5038260;28;20045;-72
2023/11/28 05:50:28;;;;;;;0.40;0.40;;;;;;;-0.72;100.00;99615.19;5039629;28;20048;-72
2023/11/28 05:52:53;;;;;;;0.40;0.40;;;;;;;-0.66;100.00;99623.09;5037316;28;20029;-75
2023/11/28 05:55:20;;;;;;;0.70;0.70;;;;;;;-0.06;100.00;99723.81;5033781;28;20190;-73
2023/11/28 05:57:47;;;;;;;1.00;1.00;;;;;;;-0.60;100.00;99625.88;5037706;28;20087;-73
2023/11/28 06:00:14;;;;;;;2.85;2.75;;;;;;;-0.31;100.00;99638.81;5037241;28;20036;-72
2023/11/28 06:02:40;;;;;;;0.40;0.40;;;;;;;0.43;100.00;99737.34;5040875;28;20107;-73
2023/11/28 06:05:07;;;;;;;0.93;0.93;;;;;;;-0.81;100.00;99590.03;5038086;28;20075;-73
2023/11/28 06:07:33;;;;;;;0.60;0.60;;;;;;;0.06;100.00;99728.47;5053789;28;20155;-75
2023/11/28 06:09:58;;;;;;;0.52;0.52;;;;;;;-0.09;100.00;99715.13;5046350;28;20037;-72
2023/11/28 06:12:24;;;;;;;0.60;0.60;;;;;;;-0.07;100.00;99716.03;5038501;28;20139;-73
2023/11/28 06:14:54;;;;;;;1.67;1.58;;;;;;;-0.34;100.00;99673.09;5043150;28;20181;-72
2023/11/28 06:17:19;;;;;;;0.40;0.40;;;;;;;0.08;100.00;99742.31;5024016;28;20025;-73
2023/11/28 06:19:45;;;;;;;2.35;2.25;;;;;;;0.11;100.00;99711.44;5037667;28;20033;-75
2023/11/28 06:22:10;;;;;;;5.10;4.70;;;;;;;0.17;100.00;99706.47;5039851;28;20492;-73
2023/11/28 06:24:37;;;;;;;0.40;0.40;;;;;;;0.26;100.00;99729.09;5038406;28;20102;-72
2023/11/28 06:27:06;;;;;;;1.75;1.65;;;;;;;0.19;100.00;99716.84;5044241;28;20036;-74
2023/11/28 06:29:34;;;;;;;0.47;0.47;;;;;;;0.31;100.00;99718.91;5040526;28;20204;-73
2023/11/28 06:32:00;;;;;;;0.70;0.70;;;;;;;0.13;100.00;99702.03;5037412;28;20089;-73
2023/11/28 06:34:26;;;;;;;1.17;1.15;;;;;;;-0.05;100.00;99612.13;5043512;28;20041;-74
2023/11/28 06:36:52;;;;;;;3.45;3.33;;;;;;;0.30;100.00;99686.19;5041314;28;20041;-72
2023/11/28 06:39:18;;;;;;;0.43;0.43;;;;;;;0.38;100.00;99671.81;5052880;28;20107;-74
2023/11/28 06:41:47;;;;;;;7.13;4.70;;;;;;;0.36;100.00;99614.13;5037310;28;20480;-72
2023/11/28 06:44:14;;;;;;;0.60;0.60;;;;;;;0.68;100.00;99630.50;5040036;28;20040;-75
2023/11/28 06:46:40;;;;;;;0.52;0.52;;;;;;;1.28;100.00;99701.81;5042780;28;20416;-72
2023/11/28 06:49:07;;;;;;;0.40;0.40;;;;;;;0.98;100.00;99687.28;5042331;28;20051;-76
2023/11/28 06:51:32;;;;;;;1.67;1.58;;;;;;;1.44;100.00;99693.59;5070558;28;20595;-77
2023/11/28 06:53:58;;;;;;;1.23;1.17;;;;;;;0.94;100.00;99601.91;5041077;28;20100;-77
2023/11/28 06:56:24;;;;;;;11.35;8.57;;;;;;;0.99;100.00;99582.25;5044472;28;20037;-77
2023/11/28 06:58:51;;;;;;;0.77;0.77;;;;;;;1.56;100.00;99575.81;5042184;28;20485;-72
2023/11/28 07:01:17;;;;;;;4.13;3.83;;;;;;;3.03;100.00;99577.84;5042495;28;20048;-72
2023/11/28 07:03:42;;;;;;;2.20;2.08;;;;;;;4.58;100.00;99588.63;5044225;28;20082;-72
2023/11/28 07:06:08;;;;;;;7.60;7.20;;;;;;;4.99;100.00;99668.78;5077320;28;20045;-71
2023/11/28 07:08:34;;;;;;;14.32;3.50;;;;;;;4.35;100.00;99637.69;5041844;28;20049;-72
2023/11/28 07:11:00;;;;;;;0.68;0.68;;;;;;;2.81;100.00;99647.44;5043569;28;20029;-71
2023/11/28 07:13:28;;;;;;;0.35;0.35;;;;;;;2.59;100.00;99633.19;5074630;28;20045;-74
2023/11/28 07:15:54;;;;;;;0.30;0.30;;;;;;;2.81;100.00;99662.06;5058966;28;20044;-75
2023/11/28 07:18:22;;;;;;;0.47;0.47;;;;;;;2.95;100.00;99634.72;5036271;28;20467;-74
2023/11/28 07:20:49;;;;;;;1.35;1.33;;;;;;;2.33;100.00;99624.91;5038934;28;20049;-74
2023/11/28 07:23:16;;;;;;;0.40;0.40;;;;;;;2.19;100.00;99491.75;5035241;28;20116;-75
2023/11/28 07:25:42;;;;;;;0.50;0.50;;;;;;;2.32;100.00;99512.72;5042271;28;20033;-78
2023/11/28 07:28:08;;;;;;;0.45;0.45;;;;;;;2.41;100.00;99518.91;5037374;28;20135;-77
2023/11/28 07:30:37;;;;;;;4.35;4.15;;;;;;;2.20;100.00;99454.69;5040767;28;20083;-78
2023/11/28 07:33:03;;;;;;;2.47;2.28;;;;;;;2.88;100.00;99635.44;5039066;28;20118;-76
2023/11/28 07:35:28;;;;;;;0.35;0.30;;;;;;;2.48;100.00;99627.81;5036985;28;20724;-78
2023/11/28 07:37:54;;;;;;;0.95;0.95;;;;;;;1.79;100.00;99481.50;5037635;28;20128;-77
2023/11/28 07:40:21;;;;;;;2.78;2.63;;;;;;;1.20;100.00;99351.94;5040423;28;20124;-76
2023/11/28 07:42:47;;;;;;;4.97;4.68;;;;;;;2.99;100.00;99609.72;5055951;28;20048;-75
2023/11/28 07:45:13;;;;;;;0.30;0.30;;;;;;;2.62;100.00;99617.72;5068701;28;20056;-78
2023/11/28 07:47:39;;;;;;;0.70;0.70;;;;;;;2.62;100.00;99510.66;5039731;28;20215;-78
2023/11/28 07:50:05;;;;;;;0.85;0.77;;;;;;;2.75;100.00;99578.22;5041228;28;20049;-76
2023/11/28 07:52:31;;;;;;;1.05;1.05;;;;;;;2.65;100.00;99469.28;5039164;28;20112;-76
2023/11/28 07:54:56;;;;;;;4.63;4.32;;;;;;;2.43;100.00;99584.53;5038089;28;20128;-76
2023/11/28 07:57:22;;;;;;;0.70;0.70;;;;;;;2.03;100.00;99566.50;5039209;28;20052;-77
2023/11/28 07:59:47;;;;;;;1.67;1.58;;;;;;;1.67;100.00;99520.91;5030306;28;20594;-77
2023/11/28 08:02:14;;;;;;;1.38;0.75;;;;;;;1.98;100.00;99575.88;5035119;28;20039;-77
2023/11/28 08:04:39;;;;;;;0.63;0.63;;;;;;;2.19;100.00;99553.88;5034040;28;20042;-77
2023/11/28 08:07:05;;;;;;;0.52;0.52;;;;;;;1.75;100.00;99520.22;5034401;28;20045;-77
2023/11/28 08:09:31;;;;;;;1.20;0.70;;;;;;;1.65;100.00;99508.81;5037535;28;20053;-76
2023/11/28 08:11:56;;;;;;;21.10;8.38;;;;;;;1.94;100.00;99534.38;5040300;28;20057;-76
2023/11/28 08:14:22;;;;;;;0.40;0.40;;;;;;;2.33;100.00;99576.59;5041737;28;20037;-77
2023/11/28 08:16:49;;;;;;;0.90;0.90;;;;;;;1.50;100.00;99470.59;5040790;28;20036;-77
2023/11/28 08:19:16;;;;;;;2.88;2.67;;;;;;;2.21;100.00;99563.41;5048202;28;20033;-75
2023/11/28 08:21:41;;;;;;;0.50;0.50;;;;;;;2.25;100.00;99567.81;5069926;28;20431;-75
2023/11/28 08:24:07;;;;;;;1.13;1.10;;;;;;;2.23;100.00;99517.72;5055661;28;20048;-77
2023/11/28 08:26:32;;;;;;;2.95;2.78;;;;;;;2.53;100.00;99542.44;5036986;28;20041;-76
2023/11/28 08:28:58;;;;;;;0.90;0.80;;;;;;;2.18;100.00;99446.91;5042071;28;20381;-76
2023/11/28 08:31:24;;;;;;;0.40;0.40;;;;;;;2.09;100.00;99418.28;5033647;28;20053;-76
2023/11/28 08:33:50;;;;;;;0.30;0.30;;;;;;;2.60;100.00;99487.34;5039346;28;20090;-76
2023/11/28 08:36:16;;;;;;;13.80;12.90;;;;;;;1.95;100.00;99410.25;5038790;28;20124;-77
2023/11/28 08:38:41;;;;;;;0.35;0.35;;;;;;;2.05;100.00;99430.28;5044186;28;20067;-77
2023/11/28 08:41:07;;;;;;;0.30;0.30;;;;;;;2.69;100.00;99520.25;5036045;28;20762;-75
2023/11/28 08:43:32;;;;;;;5.60;5.35;;;;;;;2.74;100.00;99505.69;5040019;28;20676;-76
2023/11/28 08:45:58;;;;;;;0.93;0.90;;;;;;;2.99;100.00;99519.03;5038402;28;20119;-76
2023/11/28 08:48:25;;;;;;;0.70;0.70;;;;;;;2.98;100.00;99504.34;5036132;28;20064;-76
2023/11/28 08:50:52;;;;;;;0.80;0.80;;;;;;;2.95;100.00;99443.00;5035997;28;20496;-76
2023/11/28 08:53:18;;;;;;;2.25;2.15;;;;;;;2.28;100.00;99337.50;5033509;28;20044;-77
2023/11/28 08:55:44;;;;;;;12.00;11.20;;;;;;;2.41;100.00;99361.88;5041482;28;20136;-77
2023/11/28 08:58:11;;;;;;;1.00;1.00;;;;;;;2.89;100.00;99468.78;5071576;28;20057;-77
2023/11/28 09:00:36;;;;;;;0.40;0.40;;;;;;;2.67;100.00;99370.03;5040049;28;20041;-77
2023/11/28 09:03:04;;;;;;;0.90;0.75;;;;;;;3.17;100.00;99411.31;5043282;28;20041;-77
2023/11/28 09:05:29;;;;;;;9.48;3.28;;;;;;;3.27;100.00;99448.59;5039288;28;20461;-77
2023/11/28 09:07:57;;;;;;;0.45;0.45;;;;;;;2.85;100.00;99371.16;5044134;28;20025;-77
2023/11/28 09:10:23;;;;;;;1.08;1.08;;;;;;;3.29;100.00;99399.38;5031439;28;20041;-75
2023/11/28 09:12:48;;;;;;;3.88;3.67;;;;;;;3.09;100.00;99337.81;5045204;28;20099;-78
2023/11/28 09:15:15;;;;;;;5.15;2.15;;;;;;;3.24;100.00;99338.84;5034098;28;20090;-76
2023/11/28 09:17:41;;;;;;;2.17;2.08;;;;;;;3.18;100.00;99334.44;5045472;28;20052;-76
2023/11/28 09:20:08;;;;;;;0.55;0.55;;;;;;;3.38;100.00;99321.72;5037710;28;20041;-75
2023/11/28 09:22:35;;;;;;;1.85;1.75;;;;;;;3.94;100.00;99385.44;5049941;28;20139;-78
2023/11/28 09:25:01;;;;;;;19.70;18.27;;;;;;;3.39;100.00;99287.16;5033461;28;20049;-76
2023/11/28 09:27:27;;;;;;;1.70;1.63;;;;;;;3.68;100.00;99367.88;5057039;28;20081;-76
2023/11/28 09:29:53;;;;;;;0.82;0.82;;;;;;;3.91;100.00;99383.69;5035731;28;20050;-76
2023/11/28 09:32:18;;;;;;;12.55;11.40;;;;;;;3.96;100.00;99365.56;5042463;28;20043;-77
2023/11/28 09:34:44;;;;;;;0.40;0.40;;;;;;;3.91;100.00;99369.81;5031925;28;20083;-78
2023/11/28 09:37:10;;;;;;;0.40;0.40;;;;;;;3.67;100.00;99314.22;5040895;28;20474;-77
2023/11/28 09:39:36;;;;;;;0.45;0.45;;;;;;;3.56;100.00;99275.25;5037798;28;20038;-77
2023/11/28 09:42:08;;;;;;;5.53;5.10;;;;;;;4.27;100.00;99319.97;5044286;28;20109;-76
2023/11/28 09:44:35;;;;;;;0.43;0.43;;;;;;;4.54;100.00;99323.59;5059284;28;20089;-76
2023/11/28 09:47:07;;;;;;;6.22;3.92;;;;;;;4.95;100.00;99329.06;5045124;28;20045;-76
2023/11/28 09:49:41;;;;;;;1.42;1.25;;;;;;;4.48;100.00;99202.38;5043478;28;20507;-77
2023/11/28 09:52:07;;;;;;;0.45;0.45;;;;;;;4.40;100.00;99165.09;5045359;28;20116;-76
2023/11/28 09:54:37;;;;;;;7.45;7.10;;;;;;;4.81;100.00;99256.22;5039849;28;20750;-76
2023/11/28 09:57:04;;;;;;;0.95;0.95;;;;;;;5.31;100.00;99287.59;5044406;28;20049;-77
2023/11/28 09:59:30;;;;;;;5.47;5.20;;;;;;;4.50;100.00;99237.00;5043169;28;20135;-77
2023/11/28 10:01:57;;;;;;;0.30;0.30;;;;;;;4.60;100.00;99233.59;5046982;28;20124;-76
2023/11/28 10:04:23;;;;;;;0.85;0.82;;;;;;;4.44;100.00;99211.84;5037762;28;20046;-77
2023/11/28 10:06:50;;;;;;;0.90;0.90;;;;;;;4.92;100.00;99271.88;5040740;28;20053;-77
2023/11/28 10:09:16;;;;;;;0.30;0.30;;;;;;;4.61;100.00;99271.72;5039221;28;20679;-76
2023/11/28 10:11:43;;;;;;;0.52;0.52;;;;;;;4.36;100.00;99234.34;5044019;28;20079;-76
2023/11/28 10:14:09;;;;;;;0.40;0.40;;;;;;;4.39;100.00;99190.19;5038734;28;20044;-77
2023/11/28 10:16:46;;;;;;;5.38;5.00;;;;;;;5.21;100.00;99271.09;5038795;28;20041;-77
2023/11/28 10:19:13;;;;;;;0.60;0.60;;;;;;;5.11;100.00;99270.19;5038996;28;20653;-76
2023/11/28 10:21:39;;;;;;;0.40;0.40;;;;;;;4.53;100.00;99161.69;5037167;28;20103;-76
2023/11/28 10:24:08;;;;;;;1.75;0.50;;;;;;;5.16;100.00;99232.06;5038649;28;20061;-76
2023/11/28 10:26:36;;;;;;;0.30;0.30;;;;;;;4.92;100.00;99147.09;5039491;28;20068;-77
2023/11/28 10:29:03;;;;;;;1.58;1.48;;;;;;;5.15;100.00;99225.16;5042314;28;20037;-76
2023/11/28 10:31:28;;;;;;;0.40;0.40;;;;;;;4.81;100.00;99213.78;5041822;28;20029;-77
2023/11/28 10:33:57;;;;;;;0.43;0.43;;;;;;;5.22;100.00;99203.50;5039623;28;20056;-76
2023/11/28 10:36:26;;;;;;;0.95;0.88;;;;;;;4.96;100.00;99163.56;5040653;28;20040;-76
2023/11/28 10:38:51;;;;;;;0.68;0.68;;;;;;;4.73;100.00;99151.38;5040988;28;20060;-76
2023/11/28 10:41:18;;;;;;;0.30;0.30;;;;;;;4.39;100.00;99088.06;5060164;28;20033;-77
2023/11/28 10:43:45;;;;;;;0.40;0.40;;;;;;;4.63;100.00;99132.28;5042328;28;20037;-78
2023/11/28 10:46:15;;;;;;;6.28;5.88;;;;;;;5.28;100.00;99180.09;5042134;28;20049;-76
2023/11/28 10:48:40;;;;;;;0.52;0.52;;;;;;;4.11;100.00;98993.63;5046086;28;20062;-76
2023/11/28 10:51:09;;;;;;;3.22;3.08;;;;;;;5.13;100.00;99134.97;5041175;28;20060;-76
2023/11/28 10:53:36;;;;;;;3.70;3.47;;;;;;;5.12;100.00;99121.13;5072153;28;20033;-76
2023/11/28 10:56:03;;;;;;;2.25;2.15;;;;;;;5.43;100.00;99144.53;5038899;28;20083;-77
2023/11/28 10:58:29;;;;;;;0.40;0.40;;;;;;;5.16;100.00;99077.81;5034866;28;20071;-77
2023/11/28 11:01:01;;;;;;;3.63;2.22;;;;;;;4.72;100.00;99102.00;5062027;28;20056;-77
2023/11/28 11:03:27;;;;;;;0.40;0.40;;;;;;;5.23;100.00;99101.19;5054801;28;20045;-77
2023/11/28 11:05:54;;;;;;;0.40;0.40;;;;;;;5.13;100.00;99109.88;5039419;28;20057;-77
2023/11/28 11:08:21;;;;;;;0.75;0.75;;;;;;;4.61;100.00;99021.44;5036664;28;20085;-76
2023/11/28 11:10:48;;;;;;;0.30;0.30;;;;;;;4.32;100.00;99008.41;5043814;28;20068;-75
2023/11/28 11:13:23;;;;;;;0.82;0.82;;;;;;;5.14;100.00;99115.94;5043969;28;20048;-74
2023/11/28 11:16:07;;;;;;;0.50;0.50;;;;;;;4.86;100.00;99020.59;5047380;28;20049;-75
2023/11/28 11:18:34;;;;;;;0.40;0.40;;;;;;;5.57;100.00;99132.44;5053861;28;20057;-75
2023/11/28 11:21:10;;;;;;;0.68;0.68;;;;;;;5.03;100.00;99032.72;5037723;28;20127;-76
2023/11/28 11:23:36;;;;;;;1.30;1.30;;;;;;;5.04;100.00;99134.13;5038050;28;20052;-77
2023/11/28 11:26:02;;;;;;;5.30;5.10;;;;;;;4.56;100.00;99132.25;5042389;28;20462;-75
2023/11/28 11:28:27;;;;;;;0.35;0.35;;;;;;;4.68;100.00;99111.50;5059315;28;20037;-76